Minatitlan Airport
MMMT : rendu visible

Aérodrome :











RETROUVEZ-NOUS SUR...

 
LOGIN :

S'inscrire | Disclaimer

   EN    FR    IT 

 









Légende :    VFR   VFR Marginal   IFR   IFR Intensif   IFR Très Intensif
Visi : 
Plafond : 
>= 8 km
>= 3000ft
5 à 8 km
1000 à 3000 ft
1500m à 5 km
500 à 1000 ft
800 à 1500m
200 à 500 ft
< 800m
< 200 ft
Symboles :   Orages  Brouillard  Fortes neiges  Fortes précipitations  Vent > 20 kt






- Altitude de l'aérodrome : 36 ft
- Code IATA : MTT


MMMT - Minatitlan

METARs EXPIRÉS :
  • 110245Z 36025KT 6SM BKN060 28/24 A2994 RMK SLP214 5//// 9// 8/500 HZY
  • 110143Z 36020KT 7SM SKC 28/23 A2990

TAF TAF MMMT
Valide du 10 à 18h jusqu'au 11 à 18h UTC


101656Z 1018/1118 23010KT P6SM SCT010
FM102300 08010KT P6SM BKN020
FM110600 36015KT P6SM SCT015 BKN080
FM111200 36020G30KT P6SM SCT015 OVC050
PROB40 1113/1115 3SM -RA



MET'MAP, la Météo Aéronautique d'un coup d'oeil ! - Copyright ORBIFLY Décembre 2007 - Disclaimer

ORBIFLY MET'MAP TEAM :

Programmation & Développement : Alexandra Zaïnal
Sur une idée originale de : Baudouin d'Aumeries
Assistance à la programmation : Marc-Olivier Méhu
Soutien technique & logistique : Manuel Goepfert

Contact : metmap@orbifly.com




SOURCES & CREDITS :

   NOAA       Earth
Advisory